Terminal Aerodrome Forecast
Issued by NWS Twin Cities, MN

Home | Current Version | Previous Version | Text Only | Print | Product List | Glossary Off
Versions: 1 2 3 4 5 6 7 8 9 10 11 12 13 14 15 16 17 18 19 20 21 22 23 24 25 26

817
FTUS43 KMPX 112328
TAFMSP
TAF
KMSP 112328Z 1200/1306 23007KT P6SM -SN OVC050
      TEMPO 1200/1203 4SM -SN BKN025 OVC040
     FM120300 26006KT P6SM BKN025 OVC035
     FM120500 31008KT P6SM OVC025
     FM121000 32013KT P6SM SCT030
     FM121500 32016G23KT P6SM FEW040 SCT250=

USA.gov is the U.S. government's official web portal to all federal, state and local government web resources and services.